Wren, Ohio
Current Conditions -  °F | °C
As of 5:54 PM on Tuesday 25 Nov 2014 (Local Time) from KFWA Reporting Station
Overcast Overcast  
Wind Chill: 19°   Ceiling: 1800
Heat Index: 26°   Visibility: 10mi
Dew Point: 20°   Wind: 6mph
Humidity: 78%   Direction: 300°WNW
Pressure: 30.16"   Gusts: NA
Location:  40.8°N, 84.78°W
Report Text: KFWA 252254Z 30005KT 10SM OVC018 M03/M07 A3016 RMK AO2 SLP222 T10331067
Loading
Personal Weather Stations






























Interactive Weather Map New forecast layout! Learn more

10-Day Weather Forecast

Advertisements
Track Severe Weather on mobile